createdAt,value
2018-08-24T00:00:45.358Z,19.70
2018-08-24T00:03:49.794Z,19.70
2018-08-24T00:06:54.200Z,19.70
2018-08-24T00:09:58.619Z,19.60
2018-08-24T00:13:03.036Z,19.70
2018-08-24T00:16:07.464Z,19.70
2018-08-24T00:19:13.940Z,19.70
2018-08-24T00:22:18.387Z,19.60
2018-08-24T00:25:22.809Z,19.70
2018-08-24T00:28:27.233Z,19.70
2018-08-24T00:31:31.752Z,19.70
2018-08-24T00:34:36.191Z,19.80
2018-08-24T00:37:40.611Z,19.80
2018-08-24T00:40:45.015Z,19.70
2018-08-24T00:43:49.455Z,19.60
2018-08-24T00:46:53.859Z,19.60
2018-08-24T00:49:58.273Z,19.60
2018-08-24T00:53:02.765Z,19.60
2018-08-24T00:56:07.974Z,19.60
2018-08-24T00:59:12.405Z,19.60
2018-08-24T01:02:16.822Z,19.50
2018-08-24T01:05:21.243Z,19.50
2018-08-24T01:08:25.678Z,19.50
2018-08-24T01:11:35.106Z,19.50
2018-08-24T01:14:41.337Z,19.50
2018-08-24T01:17:50.990Z,19.50
2018-08-24T01:20:56.134Z,19.50
2018-08-24T01:24:00.602Z,19.50
2018-08-24T01:27:05.987Z,19.50
2018-08-24T01:30:10.427Z,19.60
2018-08-24T01:33:15.139Z,19.60
2018-08-24T01:36:19.583Z,19.60
2018-08-24T01:39:24.080Z,19.70
2018-08-24T01:42:28.486Z,19.80
2018-08-24T01:45:32.917Z,19.90
2018-08-24T01:48:37.502Z,19.90
2018-08-24T01:51:41.922Z,19.90
2018-08-24T01:54:46.346Z,19.80
2018-08-24T01:57:50.749Z,19.90
2018-08-24T02:00:55.174Z,19.90
2018-08-24T02:03:59.598Z,19.80
2018-08-24T02:07:04.009Z,19.80
2018-08-24T02:10:13.659Z,19.80
2018-08-24T02:13:23.305Z,19.80
2018-08-24T02:16:31.828Z,19.80
2018-08-24T02:19:41.434Z,19.90
2018-08-24T02:22:50.009Z,19.90
2018-08-24T02:25:54.446Z,19.90
2018-08-24T02:28:58.862Z,19.90
2018-08-24T02:32:03.370Z,19.90
2018-08-24T02:35:09.125Z,19.90
2018-08-24T02:38:13.534Z,19.90
2018-08-24T02:41:17.974Z,19.80
2018-08-24T02:44:22.394Z,19.80
2018-08-24T02:47:26.818Z,19.70
2018-08-24T02:50:31.266Z,19.70
2018-08-24T02:53:35.716Z,19.60
2018-08-24T02:56:40.135Z,19.60
2018-08-24T02:59:44.704Z,19.70
2018-08-24T03:02:49.146Z,19.70
2018-08-24T03:05:53.626Z,19.60
2018-08-24T03:08:58.048Z,19.50
2018-08-24T03:12:02.474Z,19.50
2018-08-24T03:15:06.929Z,19.40
2018-08-24T03:18:11.391Z,19.30
2018-08-24T03:21:15.838Z,19.20
2018-08-24T03:24:20.234Z,19.20
2018-08-24T03:27:24.686Z,19.30
2018-08-24T03:30:29.110Z,19.30
2018-08-24T03:33:33.538Z,19.40
2018-08-24T03:36:37.957Z,19.40
2018-08-24T03:39:42.374Z,19.40
2018-08-24T03:42:46.819Z,19.50
2018-08-24T03:45:51.269Z,19.50
2018-08-24T03:48:55.737Z,19.50
2018-08-24T03:52:00.174Z,19.50
2018-08-24T03:55:04.641Z,19.50
2018-08-24T03:58:09.125Z,19.40
2018-08-24T04:01:13.602Z,19.40
2018-08-24T04:04:18.026Z,19.40
2018-08-24T04:07:22.450Z,19.40
2018-08-24T04:10:27.350Z,19.40
2018-08-24T04:13:31.789Z,19.40
2018-08-24T04:16:41.226Z,19.30
2018-08-24T04:19:45.643Z,19.30
2018-08-24T04:22:50.122Z,19.30
2018-08-24T04:25:54.577Z,19.40
2018-08-24T04:28:58.977Z,19.40
2018-08-24T04:32:03.437Z,19.40
2018-08-24T04:35:08.038Z,19.40
2018-08-24T04:38:12.462Z,19.40
2018-08-24T04:41:16.938Z,19.40
2018-08-24T04:44:21.364Z,19.30
2018-08-24T04:47:25.806Z,19.30
2018-08-24T04:50:30.255Z,19.20
2018-08-24T04:53:34.693Z,19.20
2018-08-24T04:56:39.108Z,19.20
2018-08-24T04:59:43.531Z,19.20
2018-08-24T05:02:47.970Z,19.20
2018-08-24T05:05:52.406Z,19.10
2018-08-24T05:08:56.824Z,19.10
2018-08-24T05:12:01.246Z,19.00
2018-08-24T05:15:05.684Z,19.10
2018-08-24T05:18:10.150Z,19.10
2018-08-24T05:21:14.604Z,19.20
2018-08-24T05:24:19.022Z,19.30
2018-08-24T05:27:23.461Z,19.30
2018-08-24T05:30:27.875Z,19.40
2018-08-24T05:33:32.327Z,19.50
2018-08-24T05:36:36.729Z,19.60
2018-08-24T05:39:41.158Z,19.70
2018-08-24T05:42:45.573Z,19.80
2018-08-24T05:45:50.002Z,19.90
2018-08-24T05:48:54.507Z,20.00
2018-08-24T05:51:58.861Z,20.00
2018-08-24T05:55:03.335Z,20.10
2018-08-24T05:58:08.287Z,20.20
2018-08-24T06:01:12.806Z,20.20
2018-08-24T06:04:17.234Z,20.20
2018-08-24T06:07:21.651Z,20.30
2018-08-24T06:10:26.098Z,20.30
2018-08-24T06:13:30.542Z,20.40
2018-08-24T06:16:35.062Z,20.50
2018-08-24T06:19:39.683Z,20.50
2018-08-24T06:22:44.102Z,20.60
2018-08-24T06:25:48.542Z,20.60
2018-08-24T06:28:52.996Z,20.60
2018-08-24T06:31:57.420Z,20.70
2018-08-24T06:35:01.865Z,20.70
2018-08-24T06:38:06.368Z,20.70
2018-08-24T06:41:10.798Z,20.70
2018-08-24T06:44:15.219Z,20.80
2018-08-24T06:47:19.735Z,21.00
2018-08-24T06:50:24.146Z,21.20
2018-08-24T06:53:28.667Z,21.40
2018-08-24T06:56:33.072Z,21.60
2018-08-24T06:59:37.626Z,21.60
2018-08-24T07:02:42.035Z,21.60
2018-08-24T07:05:46.572Z,21.60
2018-08-24T07:08:50.933Z,21.60
2018-08-24T07:11:55.344Z,21.60
2018-08-24T07:14:59.772Z,21.60
2018-08-24T07:18:04.313Z,21.50
2018-08-24T07:21:08.741Z,21.50
2018-08-24T07:24:13.162Z,21.50
2018-08-24T07:27:17.579Z,21.50
2018-08-24T07:30:22.016Z,21.60
2018-08-24T07:33:26.467Z,21.60
2018-08-24T07:36:30.951Z,21.70
2018-08-24T07:39:35.389Z,21.70
2018-08-24T07:42:39.835Z,21.80
2018-08-24T07:45:44.282Z,21.90
2018-08-24T07:48:48.706Z,21.90
2018-08-24T07:51:53.122Z,22.00
2018-08-24T07:54:57.561Z,22.10
2018-08-24T07:58:01.970Z,22.20
2018-08-24T08:01:06.518Z,22.20
2018-08-24T08:04:10.929Z,22.00
2018-08-24T08:07:15.386Z,21.90
2018-08-24T08:10:19.815Z,21.70
2018-08-24T08:13:24.210Z,21.60
2018-08-24T08:16:28.630Z,21.50
2018-08-24T08:19:33.138Z,21.40
2018-08-24T08:22:37.565Z,21.20
2018-08-24T08:25:42.007Z,21.10
2018-08-24T08:28:46.410Z,21.20
2018-08-24T08:31:51.054Z,21.50
2018-08-24T08:34:55.482Z,21.70
2018-08-24T08:37:59.975Z,22.10
2018-08-24T08:41:04.434Z,22.30
2018-08-24T08:44:08.946Z,22.40
2018-08-24T08:47:13.410Z,22.40
2018-08-24T08:50:17.836Z,22.50
2018-08-24T08:53:22.260Z,22.50
2018-08-24T08:56:26.697Z,22.60
2018-08-24T08:59:31.111Z,22.60
2018-08-24T09:02:35.533Z,22.60
2018-08-24T09:05:40.049Z,22.60
2018-08-24T09:08:44.454Z,22.80
2018-08-24T09:11:48.912Z,23.00
2018-08-24T09:14:53.332Z,23.10
2018-08-24T09:18:03.068Z,23.20
2018-08-24T09:21:12.774Z,23.50
2018-08-24T09:24:22.342Z,24.00
2018-08-24T09:27:35.790Z,24.40
2018-08-24T09:30:44.418Z,24.70
2018-08-24T09:33:48.854Z,24.60
2018-08-24T09:36:53.287Z,24.20
2018-08-24T09:39:57.710Z,23.90
2018-08-24T09:43:06.265Z,23.50
2018-08-24T09:46:10.718Z,23.30
2018-08-24T09:49:20.311Z,23.10
2018-08-24T09:52:28.148Z,23.00
2018-08-24T09:55:37.798Z,22.80
2018-08-24T09:58:42.250Z,22.60
2018-08-24T10:01:51.951Z,22.40
2018-08-24T10:05:01.513Z,22.20
2018-08-24T10:08:11.217Z,22.10
2018-08-24T10:11:15.713Z,22.10
2018-08-24T10:14:20.150Z,22.20
2018-08-24T10:17:26.978Z,22.40
2018-08-24T10:20:31.442Z,22.50
2018-08-24T10:23:35.933Z,22.60
2018-08-24T10:26:40.653Z,22.70
2018-08-24T10:29:45.158Z,22.70
2018-08-24T10:32:49.652Z,22.60
2018-08-24T10:35:54.071Z,22.70
2018-08-24T10:38:58.583Z,22.80
2018-08-24T10:42:02.963Z,23.20
2018-08-24T10:45:07.650Z,23.70
2018-08-24T10:48:12.155Z,23.90
2018-08-24T10:51:16.604Z,23.70
2018-08-24T10:54:21.046Z,23.20
2018-08-24T10:57:25.493Z,22.40
2018-08-24T11:00:29.922Z,21.80
2018-08-24T11:03:34.352Z,21.20
2018-08-24T11:06:38.806Z,20.80
2018-08-24T11:09:43.241Z,20.40
2018-08-24T11:12:47.703Z,20.10
2018-08-24T11:15:52.571Z,19.70
2018-08-24T11:18:57.010Z,19.30
2018-08-24T11:22:01.423Z,19.20
2018-08-24T11:25:06.347Z,19.10
2018-08-24T11:28:10.890Z,19.00
2018-08-24T11:31:15.334Z,19.00
2018-08-24T11:34:19.800Z,18.80
2018-08-24T11:37:24.281Z,18.70
2018-08-24T11:40:28.801Z,18.60
2018-08-24T11:43:33.263Z,18.60
2018-08-24T11:46:37.657Z,18.60
2018-08-24T11:49:42.090Z,18.60
2018-08-24T11:52:46.504Z,18.70
2018-08-24T11:55:50.943Z,18.80
2018-08-24T11:58:55.366Z,18.90
2018-08-24T12:01:59.814Z,19.00
2018-08-24T12:05:04.466Z,19.10
2018-08-24T12:08:09.000Z,19.30
2018-08-24T12:11:20.090Z,19.50
2018-08-24T12:14:25.263Z,19.70
2018-08-24T12:17:34.158Z,19.80
2018-08-24T12:20:38.585Z,19.90
2018-08-24T12:23:43.006Z,19.90
2018-08-24T12:26:47.414Z,20.00
2018-08-24T12:29:51.922Z,20.10
2018-08-24T12:32:56.415Z,20.20
2018-08-24T12:36:00.842Z,20.20
2018-08-24T12:39:08.239Z,20.20
2018-08-24T12:42:13.310Z,20.20
2018-08-24T12:45:17.782Z,20.00
2018-08-24T12:48:22.264Z,20.00
2018-08-24T12:51:27.006Z,20.00
2018-08-24T12:54:31.461Z,19.80
2018-08-24T12:57:35.874Z,19.50
2018-08-24T13:00:40.354Z,19.30
2018-08-24T13:03:44.991Z,19.10
2018-08-24T13:06:49.425Z,18.90
2018-08-24T13:09:53.854Z,18.80
2018-08-24T13:12:58.273Z,18.60
2018-08-24T13:16:02.833Z,18.50
2018-08-24T13:19:07.822Z,18.40
2018-08-24T13:22:12.291Z,18.40
2018-08-24T13:25:16.722Z,18.40
2018-08-24T13:28:21.174Z,18.30
2018-08-24T13:31:25.655Z,18.30
2018-08-24T13:34:30.142Z,18.20
2018-08-24T13:37:34.591Z,18.20
2018-08-24T13:40:39.032Z,18.20
2018-08-24T13:43:43.513Z,18.20
2018-08-24T13:46:47.934Z,18.40
2018-08-24T13:49:52.357Z,18.50
2018-08-24T13:52:56.911Z,18.70
2018-08-24T13:56:01.338Z,19.00
2018-08-24T13:59:05.782Z,19.20
2018-08-24T14:02:10.220Z,19.30
2018-08-24T14:05:14.656Z,19.70
2018-08-24T14:08:19.072Z,19.90
2018-08-24T14:11:23.521Z,20.00
2018-08-24T14:14:27.936Z,20.10
2018-08-24T14:17:32.359Z,20.30
2018-08-24T14:20:36.761Z,20.40
2018-08-24T14:23:41.254Z,20.40
2018-08-24T14:26:45.723Z,20.40
2018-08-24T14:29:50.145Z,20.40
2018-08-24T14:32:54.586Z,20.30
2018-08-24T14:35:58.981Z,20.10
2018-08-24T14:39:03.512Z,19.90
2018-08-24T14:42:07.967Z,19.70
2018-08-24T14:45:12.441Z,19.70
2018-08-24T14:48:17.062Z,19.60
2018-08-24T14:51:21.479Z,19.60
2018-08-24T14:54:25.918Z,19.60
2018-08-24T14:57:30.416Z,19.60
2018-08-24T15:00:34.851Z,19.50
2018-08-24T15:03:39.306Z,19.40
2018-08-24T15:06:43.722Z,19.30
2018-08-24T15:09:48.208Z,19.20
2018-08-24T15:12:52.655Z,19.10
2018-08-24T15:15:57.061Z,19.10
2018-08-24T15:19:01.575Z,19.00
2018-08-24T15:22:06.078Z,19.00
2018-08-24T15:25:10.505Z,19.00
2018-08-24T15:28:14.942Z,19.10
2018-08-24T15:31:26.085Z,19.10
2018-08-24T15:34:30.518Z,19.20
2018-08-24T15:37:34.957Z,19.30
2018-08-24T15:40:39.381Z,19.30
2018-08-24T15:43:43.802Z,19.30
2018-08-24T15:46:48.230Z,19.30
2018-08-24T15:49:52.654Z,19.30
2018-08-24T15:52:57.082Z,19.20
2018-08-24T15:56:01.478Z,19.10
2018-08-24T15:59:06.024Z,19.10
2018-08-24T16:02:10.438Z,19.00
2018-08-24T16:05:14.871Z,19.00
2018-08-24T16:08:19.290Z,19.10
2018-08-24T16:11:23.726Z,19.10
2018-08-24T16:14:28.267Z,19.10
2018-08-24T16:17:32.730Z,19.10
2018-08-24T16:20:37.151Z,19.20
2018-08-24T16:23:42.926Z,19.20
2018-08-24T16:26:47.613Z,19.20
2018-08-24T16:29:55.467Z,19.30
2018-08-24T16:32:59.939Z,19.30
2018-08-24T16:36:04.359Z,19.30
2018-08-24T16:39:09.703Z,19.30
2018-08-24T16:42:14.122Z,19.30
2018-08-24T16:45:18.550Z,19.30
2018-08-24T16:48:22.978Z,19.30
2018-08-24T16:51:27.424Z,19.30
2018-08-24T16:54:31.856Z,19.30
2018-08-24T16:57:36.287Z,19.30
2018-08-24T17:00:40.731Z,19.20
2018-08-24T17:03:45.205Z,19.20
2018-08-24T17:06:49.642Z,19.20
2018-08-24T17:09:54.132Z,19.20
2018-08-24T17:12:58.591Z,19.10
2018-08-24T17:16:03.874Z,19.10
2018-08-24T17:19:08.360Z,19.00
2018-08-24T17:22:12.789Z,19.00
2018-08-24T17:25:17.227Z,19.00
2018-08-24T17:28:21.643Z,18.90
2018-08-24T17:31:26.086Z,18.90
2018-08-24T17:34:30.545Z,18.90
2018-08-24T17:37:34.947Z,18.90
2018-08-24T17:40:39.426Z,19.00
2018-08-24T17:43:44.006Z,19.00
2018-08-24T17:46:48.464Z,19.00
2018-08-24T17:49:52.900Z,18.90
2018-08-24T17:52:57.310Z,18.80
2018-08-24T17:56:01.743Z,18.80
2018-08-24T17:59:06.243Z,18.80
2018-08-24T18:02:10.709Z,18.70
2018-08-24T18:05:15.141Z,18.70
2018-08-24T18:08:19.627Z,18.70
2018-08-24T18:11:24.050Z,18.60
2018-08-24T18:14:28.464Z,18.60
2018-08-24T18:17:32.890Z,18.60
2018-08-24T18:20:37.435Z,18.50
2018-08-24T18:23:42.014Z,18.50
2018-08-24T18:26:46.494Z,18.40
2018-08-24T18:29:50.919Z,18.40
2018-08-24T18:32:55.354Z,18.40
2018-08-24T18:35:59.792Z,18.30
2018-08-24T18:39:05.999Z,18.30
2018-08-24T18:42:10.454Z,18.30
2018-08-24T18:45:14.902Z,18.30
2018-08-24T18:48:19.326Z,18.30
2018-08-24T18:51:23.798Z,18.20
2018-08-24T18:54:28.206Z,18.20
2018-08-24T18:57:33.178Z,18.30
2018-08-24T19:00:37.615Z,18.30
2018-08-24T19:03:42.022Z,18.20
2018-08-24T19:06:46.446Z,18.10
2018-08-24T19:09:50.892Z,18.10
2018-08-24T19:12:55.327Z,18.10
2018-08-24T19:15:59.791Z,18.00
2018-08-24T19:19:09.464Z,18.00
2018-08-24T19:22:13.914Z,18.10
2018-08-24T19:25:18.417Z,18.10
2018-08-24T19:28:28.123Z,18.10
2018-08-24T19:31:32.585Z,18.10
2018-08-24T19:34:37.020Z,18.20
2018-08-24T19:37:41.523Z,18.30
2018-08-24T19:42:59.705Z,18.30
2018-08-24T19:46:04.207Z,18.30
2018-08-24T19:49:24.111Z,18.20
2018-08-24T19:52:28.630Z,18.30
2018-08-24T19:55:33.045Z,18.30
2018-08-24T19:58:42.746Z,18.20
2018-08-24T20:01:47.274Z,18.10
2018-08-24T20:04:51.721Z,18.10
2018-08-24T20:08:01.505Z,18.10
2018-08-24T20:11:06.053Z,18.10
2018-08-24T20:14:10.494Z,18.10
2018-08-24T20:17:20.122Z,18.20
2018-08-24T20:20:24.586Z,18.20
2018-08-24T20:23:29.043Z,18.10
2018-08-24T20:26:33.555Z,18.00
2018-08-24T20:29:37.957Z,18.00
2018-08-24T20:32:42.401Z,17.90
2018-08-24T20:35:46.854Z,18.00
2018-08-24T20:38:51.278Z,17.90
2018-08-24T20:41:55.763Z,17.90
2018-08-24T20:45:00.170Z,17.80
2018-08-24T20:48:05.059Z,17.90
2018-08-24T20:51:09.481Z,17.90
2018-08-24T20:54:13.911Z,18.00
2018-08-24T20:57:18.355Z,18.00
2018-08-24T21:00:22.767Z,18.00
2018-08-24T21:03:27.290Z,18.10
2018-08-24T21:06:31.776Z,18.10
2018-08-24T21:09:37.527Z,18.10
2018-08-24T21:12:42.166Z,18.00
2018-08-24T21:15:46.566Z,17.90
2018-08-24T21:18:50.992Z,17.80
2018-08-24T21:21:55.402Z,17.70
2018-08-24T21:24:59.885Z,17.80
2018-08-24T21:28:04.313Z,17.80
2018-08-24T21:31:08.727Z,17.80
2018-08-24T21:34:13.266Z,17.80
2018-08-24T21:37:17.685Z,17.80
2018-08-24T21:40:22.205Z,17.70
2018-08-24T21:43:26.638Z,17.60
2018-08-24T21:46:31.045Z,17.60
2018-08-24T21:49:35.485Z,17.70
2018-08-24T21:52:39.899Z,17.70
2018-08-24T21:55:44.325Z,17.70
2018-08-24T21:58:48.960Z,17.70
2018-08-24T22:01:53.787Z,17.70
2018-08-24T22:04:58.288Z,17.70
2018-08-24T22:08:02.900Z,17.80
2018-08-24T22:11:07.450Z,17.70
2018-08-24T22:14:12.043Z,17.70
2018-08-24T22:17:16.666Z,17.70
2018-08-24T22:20:21.489Z,17.70
2018-08-24T22:23:26.053Z,17.60
2018-08-24T22:26:31.039Z,17.60
2018-08-24T22:29:35.738Z,17.40
2018-08-24T22:32:40.469Z,17.30
2018-08-24T22:35:45.003Z,17.20
2018-08-24T22:38:49.458Z,17.10
2018-08-24T22:41:53.919Z,17.00
2018-08-24T22:44:58.386Z,17.00
2018-08-24T22:48:02.842Z,16.90
2018-08-24T22:51:07.326Z,16.80
2018-08-24T22:54:11.779Z,16.70
2018-08-24T22:57:16.278Z,16.70
2018-08-24T23:00:20.762Z,16.70
2018-08-24T23:03:25.235Z,16.50
2018-08-24T23:06:29.726Z,16.50
2018-08-24T23:09:34.198Z,16.30
2018-08-24T23:12:38.687Z,16.20
2018-08-24T23:15:43.163Z,16.00
2018-08-24T23:18:47.606Z,15.80
2018-08-24T23:21:52.110Z,15.70
2018-08-24T23:24:56.761Z,15.70
2018-08-24T23:28:01.246Z,15.80
2018-08-24T23:31:06.153Z,15.90
2018-08-24T23:34:10.704Z,15.90
2018-08-24T23:37:15.243Z,15.80
2018-08-24T23:40:19.751Z,15.70
2018-08-24T23:43:24.279Z,15.70
2018-08-24T23:46:28.713Z,15.60
2018-08-24T23:49:33.132Z,15.40
2018-08-24T23:52:37.633Z,15.40
2018-08-24T23:55:42.150Z,15.40
2018-08-24T23:58:46.602Z,15.40
